sensor_id;sensor_type;location;lat;lon;timestamp;noise_LAeq;noise_LA_min;noise_LA_max;noise_LA01;noise_LA95
70454;Laerm;57915;47.174;14.680;2024-02-28T00:00:39;42.54;39.36;46.53;;
70454;Laerm;57915;47.174;14.680;2024-02-28T00:01:47;40.20;36.70;45.95;;
70454;Laerm;57915;47.174;14.680;2024-02-28T00:02:47;40.44;36.99;46.53;;
70454;Laerm;57915;47.174;14.680;2024-02-28T00:03:49;55.87;37.81;69.46;;
70454;Laerm;57915;47.174;14.680;2024-02-28T00:04:49;40.48;36.56;47.81;;
70454;Laerm;57915;47.174;14.680;2024-02-28T00:05:50;40.69;37.24;46.66;;
70454;Laerm;57915;47.174;14.680;2024-02-28T00:06:52;40.76;37.10;44.71;;
70454;Laerm;57915;47.174;14.680;2024-02-28T00:07:53;55.09;38.90;68.16;;
70454;Laerm;57915;47.174;14.680;2024-02-28T00:08:53;40.51;36.75;44.36;;
70454;Laerm;57915;47.174;14.680;2024-02-28T00:09:55;41.71;38.22;45.39;;
70454;Laerm;57915;47.174;14.680;2024-02-28T00:10:57;55.92;40.41;63.91;;
70454;Laerm;57915;47.174;14.680;2024-02-28T00:11:59;46.98;40.16;52.27;;
70454;Laerm;57915;47.174;14.680;2024-02-28T00:12:59;43.58;38.93;51.56;;
70454;Laerm;57915;47.174;14.680;2024-02-28T00:14:01;42.09;36.81;47.33;;
70454;Laerm;57915;47.174;14.680;2024-02-28T00:15:02;40.81;37.21;44.59;;
70454;Laerm;57915;47.174;14.680;2024-02-28T00:16:05;40.19;37.14;43.86;;
70454;Laerm;57915;47.174;14.680;2024-02-28T00:17:05;39.73;36.57;44.94;;
70454;Laerm;57915;47.174;14.680;2024-02-28T00:18:07;45.71;38.08;53.11;;
70454;Laerm;57915;47.174;14.680;2024-02-28T00:19:08;43.09;38.56;48.67;;
70454;Laerm;57915;47.174;14.680;2024-02-28T00:20:11;41.18;37.67;45.34;;
70454;Laerm;57915;47.174;14.680;2024-02-28T00:21:12;40.44;37.13;45.59;;
70454;Laerm;57915;47.174;14.680;2024-02-28T00:22:14;42.32;38.18;45.59;;
70454;Laerm;57915;47.174;14.680;2024-02-28T00:23:16;40.81;37.10;44.28;;
70454;Laerm;57915;47.174;14.680;2024-02-28T00:24:16;39.77;36.81;43.98;;
70454;Laerm;57915;47.174;14.680;2024-02-28T00:25:17;41.35;37.60;46.01;;
70454;Laerm;57915;47.174;14.680;2024-02-28T00:26:18;54.62;38.20;68.11;;
70454;Laerm;57915;47.174;14.680;2024-02-28T00:27:19;41.02;36.55;47.15;;
70454;Laerm;57915;47.174;14.680;2024-02-28T00:28:21;38.56;36.13;41.14;;
70454;Laerm;57915;47.174;14.680;2024-02-28T00:29:21;41.81;38.00;46.58;;
70454;Laerm;57915;47.174;14.680;2024-02-28T00:30:23;40.67;37.86;43.82;;
70454;Laerm;57915;47.174;14.680;2024-02-28T00:31:23;40.12;36.41;43.59;;
70454;Laerm;57915;47.174;14.680;2024-02-28T00:32:24;39.75;37.17;43.77;;
70454;Laerm;57915;47.174;14.680;2024-02-28T00:33:25;43.71;38.67;48.80;;
70454;Laerm;57915;47.174;14.680;2024-02-28T00:34:25;57.82;44.57;70.61;;
70454;Laerm;57915;47.174;14.680;2024-02-28T00:35:27;41.39;37.23;47.44;;
70454;Laerm;57915;47.174;14.680;2024-02-28T00:36:28;42.47;38.52;48.97;;
70454;Laerm;57915;47.174;14.680;2024-02-28T00:37:31;55.22;39.22;68.22;;
70454;Laerm;57915;47.174;14.680;2024-02-28T00:38:31;39.81;36.60;42.97;;
70454;Laerm;57915;47.174;14.680;2024-02-28T00:39:33;39.31;35.96;42.68;;
70454;Laerm;57915;47.174;14.680;2024-02-28T00:40:33;40.62;36.60;46.23;;
70454;Laerm;57915;47.174;14.680;2024-02-28T00:41:35;44.45;37.03;48.64;;
70454;Laerm;57915;47.174;14.680;2024-02-28T00:42:35;39.73;35.78;45.34;;
70454;Laerm;57915;47.174;14.680;2024-02-28T00:43:37;40.12;36.82;43.90;;
70454;Laerm;57915;47.174;14.680;2024-02-28T00:44:37;61.89;37.05;77.40;;
70454;Laerm;57915;47.174;14.680;2024-02-28T00:45:37;39.44;36.00;43.49;;
70454;Laerm;57915;47.174;14.680;2024-02-28T00:46:39;40.30;37.10;45.50;;
70454;Laerm;57915;47.174;14.680;2024-02-28T00:47:40;40.78;38.13;47.28;;
70454;Laerm;57915;47.174;14.680;2024-02-28T00:48:40;40.52;36.84;44.38;;
70454;Laerm;57915;47.174;14.680;2024-02-28T00:49:42;40.87;37.32;45.36;;
70454;Laerm;57915;47.174;14.680;2024-02-28T00:50:42;39.58;36.33;43.28;;
70454;Laerm;57915;47.174;14.680;2024-02-28T00:51:43;38.85;36.26;41.53;;
70454;Laerm;57915;47.174;14.680;2024-02-28T00:52:45;40.02;36.95;42.60;;
70454;Laerm;57915;47.174;14.680;2024-02-28T00:53:47;39.05;36.52;41.22;;
70454;Laerm;57915;47.174;14.680;2024-02-28T00:54:47;40.72;36.80;44.14;;
70454;Laerm;57915;47.174;14.680;2024-02-28T00:55:49;41.63;38.97;44.77;;
70454;Laerm;57915;47.174;14.680;2024-02-28T00:56:51;42.26;38.16;46.92;;
70454;Laerm;57915;47.174;14.680;2024-02-28T00:57:53;42.13;38.02;44.91;;
70454;Laerm;57915;47.174;14.680;2024-02-28T00:58:53;39.63;36.55;42.30;;
70454;Laerm;57915;47.174;14.680;2024-02-28T00:59:54;41.65;37.18;45.74;;
70454;Laerm;57915;47.174;14.680;2024-02-28T01:00:55;40.98;37.76;43.80;;
70454;Laerm;57915;47.174;14.680;2024-02-28T01:01:56;42.77;39.77;45.86;;
70454;Laerm;57915;47.174;14.680;2024-02-28T01:02:58;40.08;37.11;43.63;;
70454;Laerm;57915;47.174;14.680;2024-02-28T01:03:58;40.53;37.98;43.94;;
70454;Laerm;57915;47.174;14.680;2024-02-28T01:05:00;40.63;36.79;44.09;;
70454;Laerm;57915;47.174;14.680;2024-02-28T01:06:01;40.71;38.08;44.10;;
70454;Laerm;57915;47.174;14.680;2024-02-28T01:07:04;43.05;39.06;47.47;;
70454;Laerm;57915;47.174;14.680;2024-02-28T01:08:06;47.67;41.72;54.00;;
70454;Laerm;57915;47.174;14.680;2024-02-28T01:09:07;40.84;37.84;44.60;;
70454;Laerm;57915;47.174;14.680;2024-02-28T01:10:08;42.20;37.68;46.85;;
70454;Laerm;57915;47.174;14.680;2024-02-28T01:11:10;42.28;37.40;47.68;;
70454;Laerm;57915;47.174;14.680;2024-02-28T01:12:10;40.51;37.03;44.13;;
70454;Laerm;57915;47.174;14.680;2024-02-28T01:13:11;41.93;37.13;45.85;;
70454;Laerm;57915;47.174;14.680;2024-02-28T01:14:12;40.39;36.93;43.54;;
70454;Laerm;57915;47.174;14.680;2024-02-28T01:15:13;40.13;36.76;45.30;;
70454;Laerm;57915;47.174;14.680;2024-02-28T01:16:14;40.45;37.63;45.13;;
70454;Laerm;57915;47.174;14.680;2024-02-28T01:17:15;40.84;37.08;44.78;;
70454;Laerm;57915;47.174;14.680;2024-02-28T01:18:15;40.49;38.02;44.87;;
70454;Laerm;57915;47.174;14.680;2024-02-28T01:19:17;39.96;36.87;43.03;;
70454;Laerm;57915;47.174;14.680;2024-02-28T01:20:17;39.98;37.00;42.92;;
70454;Laerm;57915;47.174;14.680;2024-02-28T01:21:18;41.20;38.32;44.04;;
70454;Laerm;57915;47.174;14.680;2024-02-28T01:22:19;41.39;38.55;47.05;;
70454;Laerm;57915;47.174;14.680;2024-02-28T01:23:22;44.04;40.78;48.71;;
70454;Laerm;57915;47.174;14.680;2024-02-28T01:24:23;42.56;38.29;48.24;;
70454;Laerm;57915;47.174;14.680;2024-02-28T01:25:24;40.84;37.66;44.17;;
70454;Laerm;57915;47.174;14.680;2024-02-28T01:26:25;42.22;38.36;45.18;;
70454;Laerm;57915;47.174;14.680;2024-02-28T01:27:26;56.66;42.03;69.64;;
70454;Laerm;57915;47.174;14.680;2024-02-28T01:28:26;46.25;41.65;51.17;;
70454;Laerm;57915;47.174;14.680;2024-02-28T01:29:28;41.51;37.91;45.67;;
70454;Laerm;57915;47.174;14.680;2024-02-28T01:30:30;41.54;38.07;44.69;;
70454;Laerm;57915;47.174;14.680;2024-02-28T01:31:31;41.16;37.85;45.81;;
70454;Laerm;57915;47.174;14.680;2024-02-28T01:32:31;41.20;38.24;44.49;;
70454;Laerm;57915;47.174;14.680;2024-02-28T01:33:33;43.56;38.31;47.35;;
70454;Laerm;57915;47.174;14.680;2024-02-28T01:34:33;41.48;38.80;44.52;;
70454;Laerm;57915;47.174;14.680;2024-02-28T01:35:35;42.32;38.16;48.62;;
70454;Laerm;57915;47.174;14.680;2024-02-28T01:36:35;41.83;38.15;45.05;;
70454;Laerm;57915;47.174;14.680;2024-02-28T01:37:37;40.83;37.09;44.27;;
70454;Laerm;57915;47.174;14.680;2024-02-28T01:38:39;40.77;37.23;43.70;;
70454;Laerm;57915;47.174;14.680;2024-02-28T01:39:40;42.18;38.86;45.54;;
70454;Laerm;57915;47.174;14.680;2024-02-28T01:40:43;40.04;37.06;43.45;;
70454;Laerm;57915;47.174;14.680;2024-02-28T01:41:50;39.92;37.32;42.50;;
70454;Laerm;57915;47.174;14.680;2024-02-28T01:42:51;39.36;36.38;42.18;;
70454;Laerm;57915;47.174;14.680;2024-02-28T01:43:52;51.80;38.36;63.91;;
70454;Laerm;57915;47.174;14.680;2024-02-28T01:44:53;40.87;37.30;46.72;;
70454;Laerm;57915;47.174;14.680;2024-02-28T01:45:55;41.54;38.02;45.31;;
70454;Laerm;57915;47.174;14.680;2024-02-28T01:46:56;41.48;38.59;45.34;;
70454;Laerm;57915;47.174;14.680;2024-02-28T01:47:58;56.80;38.50;70.60;;
70454;Laerm;57915;47.174;14.680;2024-02-28T01:48:59;42.32;38.50;46.50;;
70454;Laerm;57915;47.174;14.680;2024-02-28T01:50:00;41.29;37.92;46.71;;
70454;Laerm;57915;47.174;14.680;2024-02-28T01:51:01;40.43;37.76;43.59;;
70454;Laerm;57915;47.174;14.680;2024-02-28T01:52:01;51.50;36.55;62.44;;
70454;Laerm;57915;47.174;14.680;2024-02-28T01:53:03;41.12;36.70;49.97;;
70454;Laerm;57915;47.174;14.680;2024-02-28T01:54:06;41.62;38.55;46.88;;
70454;Laerm;57915;47.174;14.680;2024-02-28T01:55:07;40.10;36.29;43.78;;
70454;Laerm;57915;47.174;14.680;2024-02-28T01:56:09;47.88;38.91;56.10;;
70454;Laerm;57915;47.174;14.680;2024-02-28T01:57:10;43.97;40.90;46.97;;
70454;Laerm;57915;47.174;14.680;2024-02-28T01:58:11;46.46;38.65;52.20;;
70454;Laerm;57915;47.174;14.680;2024-02-28T01:59:12;42.46;37.64;46.43;;
70454;Laerm;57915;47.174;14.680;2024-02-28T02:00:14;40.96;37.67;43.59;;
70454;Laerm;57915;47.174;14.680;2024-02-28T02:01:16;40.43;37.44;44.04;;
70454;Laerm;57915;47.174;14.680;2024-02-28T02:02:16;39.45;36.51;44.71;;
70454;Laerm;57915;47.174;14.680;2024-02-28T02:03:18;41.33;37.89;43.96;;
70454;Laerm;57915;47.174;14.680;2024-02-28T02:04:18;41.19;38.10;44.12;;
70454;Laerm;57915;47.174;14.680;2024-02-28T02:05:20;45.52;39.44;53.33;;
70454;Laerm;57915;47.174;14.680;2024-02-28T02:06:20;44.55;39.15;52.27;;
70454;Laerm;57915;47.174;14.680;2024-02-28T02:07:22;42.05;38.04;45.95;;
70454;Laerm;57915;47.174;14.680;2024-02-28T02:08:23;41.54;37.60;44.85;;
70454;Laerm;57915;47.174;14.680;2024-02-28T02:09:26;53.06;37.81;65.36;;
70454;Laerm;57915;47.174;14.680;2024-02-28T02:10:27;42.51;38.67;47.15;;
70454;Laerm;57915;47.174;14.680;2024-02-28T02:11:28;48.60;40.09;55.67;;
70454;Laerm;57915;47.174;14.680;2024-02-28T02:12:29;44.69;38.59;51.84;;
70454;Laerm;57915;47.174;14.680;2024-02-28T02:13:32;43.01;39.23;48.87;;
70454;Laerm;57915;47.174;14.680;2024-02-28T02:14:33;42.10;38.57;46.85;;
70454;Laerm;57915;47.174;14.680;2024-02-28T02:15:34;41.81;37.79;46.76;;
70454;Laerm;57915;47.174;14.680;2024-02-28T02:16:35;40.98;36.48;45.29;;
70454;Laerm;57915;47.174;14.680;2024-02-28T02:17:35;40.44;36.56;46.16;;
70454;Laerm;57915;47.174;14.680;2024-02-28T02:18:37;42.77;37.72;47.58;;
70454;Laerm;57915;47.174;14.680;2024-02-28T02:19:37;42.35;38.39;48.60;;
70454;Laerm;57915;47.174;14.680;2024-02-28T02:20:41;39.60;35.72;44.70;;
70454;Laerm;57915;47.174;14.680;2024-02-28T02:21:47;39.02;34.55;46.33;;
70454;Laerm;57915;47.174;14.680;2024-02-28T02:22:51;40.60;36.73;48.52;;
70454;Laerm;57915;47.174;14.680;2024-02-28T02:23:52;40.76;37.18;45.80;;
70454;Laerm;57915;47.174;14.680;2024-02-28T02:24:52;39.24;36.30;41.90;;
70454;Laerm;57915;47.174;14.680;2024-02-28T02:25:54;39.77;36.52;42.94;;
70454;Laerm;57915;47.174;14.680;2024-02-28T02:26:55;46.94;38.76;56.95;;
70454;Laerm;57915;47.174;14.680;2024-02-28T02:27:56;40.26;36.68;44.48;;
70454;Laerm;57915;47.174;14.680;2024-02-28T02:28:57;39.25;35.82;42.90;;
70454;Laerm;57915;47.174;14.680;2024-02-28T02:29:58;40.41;37.03;43.27;;
70454;Laerm;57915;47.174;14.680;2024-02-28T02:30:59;40.63;38.04;44.02;;
70454;Laerm;57915;47.174;14.680;2024-02-28T02:31:59;39.95;37.29;43.63;;
70454;Laerm;57915;47.174;14.680;2024-02-28T02:33:01;39.69;36.45;42.60;;
70454;Laerm;57915;47.174;14.680;2024-02-28T02:34:01;39.97;36.32;44.76;;
70454;Laerm;57915;47.174;14.680;2024-02-28T02:35:03;41.09;38.45;43.47;;
70454;Laerm;57915;47.174;14.680;2024-02-28T02:36:03;41.88;39.33;44.98;;
70454;Laerm;57915;47.174;14.680;2024-02-28T02:37:05;41.63;38.16;44.32;;
70454;Laerm;57915;47.174;14.680;2024-02-28T02:38:10;40.63;36.67;44.71;;
70454;Laerm;57915;47.174;14.680;2024-02-28T02:39:11;38.41;35.91;42.35;;
70454;Laerm;57915;47.174;14.680;2024-02-28T02:40:12;37.28;35.28;39.48;;
70454;Laerm;57915;47.174;14.680;2024-02-28T02:41:13;38.30;35.12;40.80;;
70454;Laerm;57915;47.174;14.680;2024-02-28T02:42:14;37.26;34.63;41.58;;
70454;Laerm;57915;47.174;14.680;2024-02-28T02:43:15;38.97;35.98;45.74;;
70454;Laerm;57915;47.174;14.680;2024-02-28T02:44:16;40.37;37.69;44.48;;
70454;Laerm;57915;47.174;14.680;2024-02-28T02:45:17;40.54;37.24;42.97;;
70454;Laerm;57915;47.174;14.680;2024-02-28T02:46:18;41.89;38.90;44.97;;
70454;Laerm;57915;47.174;14.680;2024-02-28T02:47:19;41.61;39.14;43.94;;
70454;Laerm;57915;47.174;14.680;2024-02-28T02:48:20;43.06;39.20;52.44;;
70454;Laerm;57915;47.174;14.680;2024-02-28T02:49:20;55.59;39.02;69.46;;
70454;Laerm;57915;47.174;14.680;2024-02-28T02:50:22;50.73;40.04;69.33;;
70454;Laerm;57915;47.174;14.680;2024-02-28T02:51:22;43.66;40.73;46.36;;
70454;Laerm;57915;47.174;14.680;2024-02-28T02:52:23;41.85;38.04;45.89;;
70454;Laerm;57915;47.174;14.680;2024-02-28T02:53:25;41.24;37.54;44.64;;
70454;Laerm;57915;47.174;14.680;2024-02-28T02:54:26;40.55;37.89;42.95;;
70454;Laerm;57915;47.174;14.680;2024-02-28T02:55:27;40.25;37.11;42.69;;
70454;Laerm;57915;47.174;14.680;2024-02-28T02:56:28;41.23;36.80;46.72;;
70454;Laerm;57915;47.174;14.680;2024-02-28T02:57:31;43.98;38.78;48.07;;
70454;Laerm;57915;47.174;14.680;2024-02-28T02:58:32;41.35;38.46;44.12;;
70454;Laerm;57915;47.174;14.680;2024-02-28T02:59:32;40.45;38.08;42.51;;
70454;Laerm;57915;47.174;14.680;2024-02-28T03:00:34;39.18;36.26;44.22;;
70454;Laerm;57915;47.174;14.680;2024-02-28T03:01:34;40.39;37.68;42.61;;
70454;Laerm;57915;47.174;14.680;2024-02-28T03:02:34;57.60;39.36;71.77;;
70454;Laerm;57915;47.174;14.680;2024-02-28T03:03:38;42.02;37.84;45.01;;
70454;Laerm;57915;47.174;14.680;2024-02-28T03:04:38;42.28;37.51;45.54;;
70454;Laerm;57915;47.174;14.680;2024-02-28T03:05:40;43.80;40.89;48.69;;
70454;Laerm;57915;47.174;14.680;2024-02-28T03:06:40;41.90;38.53;48.42;;
70454;Laerm;57915;47.174;14.680;2024-02-28T03:07:42;54.18;39.25;66.48;;
70454;Laerm;57915;47.174;14.680;2024-02-28T03:08:44;45.38;38.88;60.22;;
70454;Laerm;57915;47.174;14.680;2024-02-28T03:09:45;55.39;41.28;68.35;;
70454;Laerm;57915;47.174;14.680;2024-02-28T03:10:45;57.02;40.53;66.96;;
70454;Laerm;57915;47.174;14.680;2024-02-28T03:11:46;54.73;39.53;67.14;;
70454;Laerm;57915;47.174;14.680;2024-02-28T03:12:47;49.93;43.89;55.97;;
70454;Laerm;57915;47.174;14.680;2024-02-28T03:13:48;57.55;40.00;71.01;;
70454;Laerm;57915;47.174;14.680;2024-02-28T03:14:49;54.69;38.34;67.62;;
70454;Laerm;57915;47.174;14.680;2024-02-28T03:15:50;42.98;38.81;48.02;;
70454;Laerm;57915;47.174;14.680;2024-02-28T03:16:51;42.13;37.91;45.85;;
70454;Laerm;57915;47.174;14.680;2024-02-28T03:17:51;42.06;38.45;47.45;;
70454;Laerm;57915;47.174;14.680;2024-02-28T03:18:53;41.09;37.11;47.59;;
70454;Laerm;57915;47.174;14.680;2024-02-28T03:19:55;56.75;38.72;67.95;;
70454;Laerm;57915;47.174;14.680;2024-02-28T03:20:56;43.37;36.66;56.12;;
70454;Laerm;57915;47.174;14.680;2024-02-28T03:21:58;41.21;37.85;45.78;;
70454;Laerm;57915;47.174;14.680;2024-02-28T03:22:58;39.26;36.27;43.86;;
70454;Laerm;57915;47.174;14.680;2024-02-28T03:24:01;40.12;36.97;43.63;;
70454;Laerm;57915;47.174;14.680;2024-02-28T03:25:02;45.22;37.49;58.16;;
70454;Laerm;57915;47.174;14.680;2024-02-28T03:26:02;57.48;39.88;67.32;;
70454;Laerm;57915;47.174;14.680;2024-02-28T03:27:04;57.51;39.63;70.66;;
70454;Laerm;57915;47.174;14.680;2024-02-28T03:28:05;44.24;38.88;51.23;;
70454;Laerm;57915;47.174;14.680;2024-02-28T03:29:06;40.73;36.81;44.11;;
70454;Laerm;57915;47.174;14.680;2024-02-28T03:30:07;57.76;38.05;72.01;;
70454;Laerm;57915;47.174;14.680;2024-02-28T03:31:08;59.12;38.81;73.11;;
70454;Laerm;57915;47.174;14.680;2024-02-28T03:32:09;41.82;36.94;47.72;;
70454;Laerm;57915;47.174;14.680;2024-02-28T03:33:10;41.34;37.74;45.01;;
70454;Laerm;57915;47.174;14.680;2024-02-28T03:34:11;46.44;40.19;57.10;;
70454;Laerm;57915;47.174;14.680;2024-02-28T03:35:11;52.97;41.27;62.76;;
70454;Laerm;57915;47.174;14.680;2024-02-28T03:36:13;41.62;37.25;49.42;;
70454;Laerm;57915;47.174;14.680;2024-02-28T03:37:13;54.77;40.76;65.19;;
70454;Laerm;57915;47.174;14.680;2024-02-28T03:38:15;60.14;41.10;70.36;;
70454;Laerm;57915;47.174;14.680;2024-02-28T03:39:17;53.19;38.44;65.00;;
70454;Laerm;57915;47.174;14.680;2024-02-28T03:40:18;55.65;38.93;69.40;;
70454;Laerm;57915;47.174;14.680;2024-02-28T03:41:19;56.68;37.90;68.67;;
70454;Laerm;57915;47.174;14.680;2024-02-28T03:42:20;44.02;39.11;51.68;;
70454;Laerm;57915;47.174;14.680;2024-02-28T03:43:21;57.77;38.67;71.14;;
70454;Laerm;57915;47.174;14.680;2024-02-28T03:44:23;52.60;38.76;64.66;;
70454;Laerm;57915;47.174;14.680;2024-02-28T03:45:23;53.47;39.69;66.37;;
70454;Laerm;57915;47.174;14.680;2024-02-28T03:46:25;55.19;40.53;67.70;;
70454;Laerm;57915;47.174;14.680;2024-02-28T03:47:25;44.42;38.34;60.07;;
70454;Laerm;57915;47.174;14.680;2024-02-28T03:48:26;44.29;40.31;57.83;;
70454;Laerm;57915;47.174;14.680;2024-02-28T03:49:27;54.03;39.85;66.73;;
70454;Laerm;57915;47.174;14.680;2024-02-28T03:50:27;55.46;43.86;67.67;;
70454;Laerm;57915;47.174;14.680;2024-02-28T03:51:29;46.38;41.80;58.58;;
70454;Laerm;57915;47.174;14.680;2024-02-28T03:52:29;59.64;41.83;71.62;;
70454;Laerm;57915;47.174;14.680;2024-02-28T03:53:31;55.22;41.19;68.13;;
70454;Laerm;57915;47.174;14.680;2024-02-28T03:54:33;43.97;40.19;49.97;;
70454;Laerm;57915;47.174;14.680;2024-02-28T03:55:35;45.05;39.75;63.54;;
70454;Laerm;57915;47.174;14.680;2024-02-28T03:56:35;44.04;39.90;48.43;;
70454;Laerm;57915;47.174;14.680;2024-02-28T03:57:36;44.00;39.77;50.31;;
70454;Laerm;57915;47.174;14.680;2024-02-28T03:58:37;43.45;39.99;50.32;;
70454;Laerm;57915;47.174;14.680;2024-02-28T03:59:38;53.09;41.31;65.01;;
70454;Laerm;57915;47.174;14.680;2024-02-28T04:00:41;50.43;40.04;62.71;;
70454;Laerm;57915;47.174;14.680;2024-02-28T04:01:44;56.42;40.99;68.79;;
70454;Laerm;57915;47.174;14.680;2024-02-28T04:02:46;42.00;39.25;46.12;;
70454;Laerm;57915;47.174;14.680;2024-02-28T04:03:46;42.71;39.23;46.39;;
70454;Laerm;57915;47.174;14.680;2024-02-28T04:04:47;59.27;40.31;72.51;;
70454;Laerm;57915;47.174;14.680;2024-02-28T04:05:48;61.64;41.61;74.09;;
70454;Laerm;57915;47.174;14.680;2024-02-28T04:06:49;55.20;41.06;67.23;;
70454;Laerm;57915;47.174;14.680;2024-02-28T04:07:50;42.35;38.78;46.94;;
70454;Laerm;57915;47.174;14.680;2024-02-28T04:08:51;56.23;40.91;69.64;;
70454;Laerm;57915;47.174;14.680;2024-02-28T04:09:53;54.81;40.67;67.88;;
70454;Laerm;57915;47.174;14.680;2024-02-28T04:10:53;60.48;42.24;70.85;;
70454;Laerm;57915;47.174;14.680;2024-02-28T04:11:55;56.92;39.83;71.20;;
70454;Laerm;57915;47.174;14.680;2024-02-28T04:12:55;51.71;40.96;67.61;;
70454;Laerm;57915;47.174;14.680;2024-02-28T04:13:57;61.41;44.31;72.60;;
70454;Laerm;57915;47.174;14.680;2024-02-28T04:14:57;45.29;40.94;50.28;;
70454;Laerm;57915;47.174;14.680;2024-02-28T04:15:59;62.18;42.67;72.13;;
70454;Laerm;57915;47.174;14.680;2024-02-28T04:16:59;54.63;41.37;68.69;;
70454;Laerm;57915;47.174;14.680;2024-02-28T04:18:01;59.40;39.97;72.18;;
70454;Laerm;57915;47.174;14.680;2024-02-28T04:19:01;55.20;41.15;66.93;;
70454;Laerm;57915;47.174;14.680;2024-02-28T04:20:03;55.74;40.06;68.74;;
70454;Laerm;57915;47.174;14.680;2024-02-28T04:21:04;61.98;41.26;72.55;;
70454;Laerm;57915;47.174;14.680;2024-02-28T04:22:06;61.44;43.20;73.83;;
70454;Laerm;57915;47.174;14.680;2024-02-28T04:23:06;60.58;44.16;69.49;;
70454;Laerm;57915;47.174;14.680;2024-02-28T04:24:08;59.55;41.80;71.22;;
70454;Laerm;57915;47.174;14.680;2024-02-28T04:25:10;62.60;42.33;75.96;;
70454;Laerm;57915;47.174;14.680;2024-02-28T04:26:12;57.88;42.27;68.04;;
70454;Laerm;57915;47.174;14.680;2024-02-28T04:27:12;56.18;42.66;68.90;;
70454;Laerm;57915;47.174;14.680;2024-02-28T04:28:13;60.62;41.54;73.98;;
70454;Laerm;57915;47.174;14.680;2024-02-28T04:29:15;55.98;42.35;68.27;;
70454;Laerm;57915;47.174;14.680;2024-02-28T04:30:15;47.31;43.82;53.54;;
70454;Laerm;57915;47.174;14.680;2024-02-28T04:31:16;56.60;44.85;67.80;;
70454;Laerm;57915;47.174;14.680;2024-02-28T04:32:17;58.65;44.19;67.73;;
70454;Laerm;57915;47.174;14.680;2024-02-28T04:33:18;59.78;44.30;68.07;;
70454;Laerm;57915;47.174;14.680;2024-02-28T04:34:19;52.22;43.89;61.91;;
70454;Laerm;57915;47.174;14.680;2024-02-28T04:35:20;60.38;42.96;70.33;;
70454;Laerm;57915;47.174;14.680;2024-02-28T04:36:21;60.93;43.12;70.64;;
70454;Laerm;57915;47.174;14.680;2024-02-28T04:37:22;58.07;41.71;69.80;;
70454;Laerm;57915;47.174;14.680;2024-02-28T04:38:23;54.15;42.88;66.06;;
70454;Laerm;57915;47.174;14.680;2024-02-28T04:39:25;62.02;44.00;71.75;;
70454;Laerm;57915;47.174;14.680;2024-02-28T04:40:26;52.00;42.22;64.73;;
70454;Laerm;57915;47.174;14.680;2024-02-28T04:41:28;62.47;47.44;69.76;;
70454;Laerm;57915;47.174;14.680;2024-02-28T04:42:28;59.01;42.44;72.14;;
70454;Laerm;57915;47.174;14.680;2024-02-28T04:43:30;58.32;43.25;70.14;;
70454;Laerm;57915;47.174;14.680;2024-02-28T04:44:30;62.06;44.32;71.95;;
70454;Laerm;57915;47.174;14.680;2024-02-28T04:45:32;61.49;44.06;70.63;;
70454;Laerm;57915;47.174;14.680;2024-02-28T04:46:33;59.18;44.05;71.85;;
70454;Laerm;57915;47.174;14.680;2024-02-28T04:47:35;61.89;43.69;71.65;;
70454;Laerm;57915;47.174;14.680;2024-02-28T04:48:36;53.88;41.81;68.54;;
70454;Laerm;57915;47.174;14.680;2024-02-28T04:49:37;60.43;43.08;71.85;;
70454;Laerm;57915;47.174;14.680;2024-02-28T04:50:38;50.51;40.47;67.71;;
70454;Laerm;57915;47.174;14.680;2024-02-28T04:51:39;55.46;41.11;68.62;;
70454;Laerm;57915;47.174;14.680;2024-02-28T04:52:40;55.88;40.89;70.64;;
70454;Laerm;57915;47.174;14.680;2024-02-28T04:53:40;62.48;42.51;71.23;;
70454;Laerm;57915;47.174;14.680;2024-02-28T04:54:41;60.56;44.07;70.05;;
70454;Laerm;57915;47.174;14.680;2024-02-28T04:55:44;44.95;42.15;50.08;;
70454;Laerm;57915;47.174;14.680;2024-02-28T04:56:44;45.39;40.82;51.85;;
70454;Laerm;57915;47.174;14.680;2024-02-28T04:57:46;57.78;40.94;66.98;;
70454;Laerm;57915;47.174;14.680;2024-02-28T04:58:47;59.80;43.52;71.84;;
70454;Laerm;57915;47.174;14.680;2024-02-28T04:59:48;59.73;40.67;71.43;;
70454;Laerm;57915;47.174;14.680;2024-02-28T05:00:49;43.75;40.74;48.69;;
70454;Laerm;57915;47.174;14.680;2024-02-28T05:01:51;44.47;39.97;55.57;;
70454;Laerm;57915;47.174;14.680;2024-02-28T05:02:52;59.19;39.98;71.37;;
70454;Laerm;57915;47.174;14.680;2024-02-28T05:03:53;59.76;40.52;72.09;;
70454;Laerm;57915;47.174;14.680;2024-02-28T05:04:54;53.01;40.96;65.94;;
70454;Laerm;57915;47.174;14.680;2024-02-28T05:05:55;58.69;41.85;66.51;;
70454;Laerm;57915;47.174;14.680;2024-02-28T05:06:55;46.35;41.94;51.64;;
70454;Laerm;57915;47.174;14.680;2024-02-28T05:07:57;59.55;41.53;70.93;;
70454;Laerm;57915;47.174;14.680;2024-02-28T05:08:57;44.14;41.05;50.23;;
70454;Laerm;57915;47.174;14.680;2024-02-28T05:09:58;58.37;42.38;72.28;;
70454;Laerm;57915;47.174;14.680;2024-02-28T05:11:01;58.05;40.81;71.83;;
70454;Laerm;57915;47.174;14.680;2024-02-28T05:12:01;59.18;41.77;68.07;;
70454;Laerm;57915;47.174;14.680;2024-02-28T05:13:03;58.56;42.73;70.86;;
70454;Laerm;57915;47.174;14.680;2024-02-28T05:14:03;57.52;43.72;69.00;;
70454;Laerm;57915;47.174;14.680;2024-02-28T05:15:05;59.44;42.54;70.39;;
70454;Laerm;57915;47.174;14.680;2024-02-28T05:16:11;61.39;44.48;71.53;;
70454;Laerm;57915;47.174;14.680;2024-02-28T05:17:13;55.77;43.95;65.73;;
70454;Laerm;57915;47.174;14.680;2024-02-28T05:18:13;58.60;44.16;68.89;;
70454;Laerm;57915;47.174;14.680;2024-02-28T05:19:15;59.59;45.63;69.85;;
70454;Laerm;57915;47.174;14.680;2024-02-28T05:20:17;61.25;46.53;69.54;;
70454;Laerm;57915;47.174;14.680;2024-02-28T05:21:19;56.71;47.11;64.73;;
70454;Laerm;57915;47.174;14.680;2024-02-28T05:22:20;58.57;43.33;69.94;;
70454;Laerm;57915;47.174;14.680;2024-02-28T05:23:20;57.31;43.56;72.67;;
70454;Laerm;57915;47.174;14.680;2024-02-28T05:24:21;55.37;43.92;67.16;;
70454;Laerm;57915;47.174;14.680;2024-02-28T05:25:22;58.88;43.50;68.07;;
70454;Laerm;57915;47.174;14.680;2024-02-28T05:26:25;63.02;47.20;73.20;;
70454;Laerm;57915;47.174;14.680;2024-02-28T05:27:26;55.29;43.23;68.15;;
70454;Laerm;57915;47.174;14.680;2024-02-28T05:28:27;61.55;47.59;70.49;;
70454;Laerm;57915;47.174;14.680;2024-02-28T05:29:28;59.36;45.53;69.98;;
70454;Laerm;57915;47.174;14.680;2024-02-28T05:30:28;59.05;44.96;70.38;;
70454;Laerm;57915;47.174;14.680;2024-02-28T05:31:30;56.99;44.70;69.48;;
70454;Laerm;57915;47.174;14.680;2024-02-28T05:32:31;55.50;44.89;66.78;;
70454;Laerm;57915;47.174;14.680;2024-02-28T05:33:33;46.41;42.06;52.93;;
70454;Laerm;57915;47.174;14.680;2024-02-28T05:34:33;56.40;42.26;67.99;;
70454;Laerm;57915;47.174;14.680;2024-02-28T05:35:34;55.86;44.30;67.48;;
70454;Laerm;57915;47.174;14.680;2024-02-28T05:36:35;62.14;47.35;69.85;;
70454;Laerm;57915;47.174;14.680;2024-02-28T05:37:35;61.62;45.20;70.44;;